Time;durP1;ratioP1;P1;durP2;ratioP2;P2;SDS_P1;SDS_P2;PMS_P1;PMS_P2;Temp;Humidity;BMP_temperature;BMP_pressure;BME280_temperature;BME280_humidity;BME280_pressure;Samples;Min_cycle;Max_cycle;Signal;HPM_P1;HPM_P2
2023/06/30 00:00:55;;;;;;;5.65;5.07;;;23.70;64.00;;;;;;5074944;28;20185;-69
2023/06/30 00:03:22;;;;;;;6.10;5.50;;;23.70;64.00;;;;;;5091104;28;20219;-69
2023/06/30 00:05:48;;;;;;;5.47;4.95;;;23.70;64.00;;;;;;5116549;27;20201;-69
2023/06/30 00:08:15;;;;;;;5.72;5.15;;;23.70;64.10;;;;;;5101229;28;20181;-69
2023/06/30 00:10:41;;;;;;;5.65;5.13;;;23.70;64.10;;;;;;5092985;28;20230;-69
2023/06/30 00:13:07;;;;;;;5.70;5.20;;;23.70;64.00;;;;;;5090694;28;20201;-69
2023/06/30 00:15:33;;;;;;;5.35;4.85;;;23.70;64.10;;;;;;5095338;28;20188;-69
2023/06/30 00:17:59;;;;;;;5.60;5.05;;;23.70;64.10;;;;;;5109499;28;20188;-69
2023/06/30 00:20:24;;;;;;;6.22;5.63;;;23.70;64.00;;;;;;5106605;28;20188;-69
2023/06/30 00:22:52;;;;;;;5.85;5.25;;;23.70;64.10;;;;;;5091713;28;20209;-69
2023/06/30 00:25:18;;;;;;;6.88;5.85;;;23.70;64.10;;;;;;5091590;28;20173;-69
2023/06/30 00:27:43;;;;;;;6.07;5.32;;;23.70;64.20;;;;;;5074391;28;20199;-69
2023/06/30 00:30:10;;;;;;;7.18;6.05;;;23.70;64.10;;;;;;5082493;28;20197;-69
2023/06/30 00:32:35;;;;;;;7.13;6.43;;;23.70;64.10;;;;;;5100273;28;20217;-69
2023/06/30 00:35:03;;;;;;;6.65;5.97;;;23.70;64.30;;;;;;5080696;28;20209;-69
2023/06/30 00:37:29;;;;;;;7.10;6.40;;;23.60;64.00;;;;;;5073634;28;20184;-69
2023/06/30 00:39:54;;;;;;;6.85;6.07;;;23.70;64.30;;;;;;5090360;28;20202;-69
2023/06/30 00:42:20;;;;;;;7.45;6.65;;;23.70;64.30;;;;;;5090765;28;20216;-69
2023/06/30 00:44:46;;;;;;;7.32;6.63;;;23.70;64.30;;;;;;5091957;28;20188;-69
2023/06/30 00:47:12;;;;;;;7.38;6.28;;;23.70;64.30;;;;;;5091015;28;20189;-69
2023/06/30 00:49:39;;;;;;;6.88;6.20;;;23.70;64.30;;;;;;5074058;28;20239;-69
2023/06/30 00:52:06;;;;;;;7.35;6.60;;;23.70;64.30;;;;;;5090249;28;20205;-69
2023/06/30 00:54:32;;;;;;;6.60;6.00;;;23.70;64.30;;;;;;5090441;28;20209;-69
2023/06/30 00:56:59;;;;;;;7.22;6.53;;;23.70;64.30;;;;;;5088912;28;20701;-69
2023/06/30 00:59:24;;;;;;;6.78;5.97;;;23.70;64.40;;;;;;5074235;28;20181;-68
2023/06/30 01:01:56;;;;;;;7.93;6.40;;;23.70;64.30;;;;;;5074007;28;20213;-69
2023/06/30 01:04:57;;;;;;;8.32;7.32;;;23.70;64.30;;;;;;5090120;28;20283;-69
2023/06/30 01:07:37;;;;;;;7.00;6.30;;;23.70;64.30;;;;;;5091561;28;20205;-69
2023/06/30 01:10:14;;;;;;;8.50;6.97;;;23.70;64.30;;;;;;5090881;28;20214;-69
2023/06/30 01:12:42;;;;;;;8.20;7.32;;;23.60;64.20;;;;;;5073340;28;20268;-69
2023/06/30 01:15:13;;;;;;;8.07;7.28;;;23.70;64.30;;;;;;5090935;28;20272;-69
2023/06/30 01:17:51;;;;;;;7.90;7.10;;;23.70;64.40;;;;;;5073749;28;20181;-68
2023/06/30 01:20:19;;;;;;;8.15;7.15;;;23.70;64.40;;;;;;5091828;28;20184;-69
2023/06/30 01:23:00;;;;;;;8.57;7.40;;;23.70;64.50;;;;;;5072965;28;20204;-69
2023/06/30 01:25:29;;;;;;;7.93;6.75;;;23.60;64.30;;;;;;5090984;28;20266;-68
2023/06/30 01:27:58;;;;;;;8.07;7.28;;;23.60;64.30;;;;;;5090620;28;20207;-69
2023/06/30 01:30:29;;;;;;;7.45;6.60;;;23.70;64.40;;;;;;5074030;28;20252;-69
2023/06/30 01:32:58;;;;;;;8.45;7.65;;;23.70;64.40;;;;;;5070345;28;20620;-69
2023/06/30 01:35:25;;;;;;;8.57;7.75;;;23.70;64.50;;;;;;5082448;28;20291;-69
2023/06/30 01:37:53;;;;;;;8.52;7.68;;;23.60;64.30;;;;;;5106841;28;20181;-69
2023/06/30 01:40:21;;;;;;;8.65;7.75;;;23.60;64.40;;;;;;5072908;28;20196;-69
2023/06/30 01:42:50;;;;;;;8.88;7.80;;;23.60;64.50;;;;;;5090127;28;20254;-69
2023/06/30 01:45:17;;;;;;;8.38;7.50;;;23.70;64.70;;;;;;5065188;28;20189;-69
2023/06/30 01:47:43;;;;;;;8.60;7.70;;;23.60;64.60;;;;;;5073645;28;20191;-69
2023/06/30 01:50:10;;;;;;;9.07;8.18;;;23.70;64.90;;;;;;5091872;28;20188;-69
2023/06/30 01:52:35;;;;;;;8.93;8.02;;;23.60;64.70;;;;;;5072754;28;20217;-69
2023/06/30 01:55:03;;;;;;;8.73;7.82;;;23.70;64.90;;;;;;5107784;28;20216;-69
2023/06/30 01:57:29;;;;;;;9.27;8.27;;;23.60;64.70;;;;;;5086617;28;20181;-69
2023/06/30 01:59:55;;;;;;;9.35;8.20;;;23.70;64.90;;;;;;5080119;28;20181;-69
2023/06/30 02:02:21;;;;;;;9.05;8.13;;;23.60;64.70;;;;;;5094348;28;20215;-69
2023/06/30 02:04:47;;;;;;;9.10;7.97;;;23.60;64.70;;;;;;5118964;27;20202;-69
2023/06/30 02:07:15;;;;;;;9.55;8.48;;;23.60;64.70;;;;;;5095079;28;20185;-69
2023/06/30 02:09:41;;;;;;;9.98;8.55;;;23.60;64.70;;;;;;5094625;28;20203;-69
2023/06/30 02:12:06;;;;;;;10.20;8.38;;;23.60;64.70;;;;;;5077087;28;20295;-69
2023/06/30 02:14:32;;;;;;;8.93;8.02;;;23.60;64.70;;;;;;5099576;28;20272;-69
2023/06/30 02:16:58;;;;;;;9.80;8.80;;;23.60;64.70;;;;;;5097015;28;20185;-69
2023/06/30 02:19:24;;;;;;;9.50;8.05;;;23.60;64.70;;;;;;5093946;28;20647;-68
2023/06/30 02:21:50;;;;;;;9.45;8.45;;;23.60;64.70;;;;;;5089839;28;20178;-69
2023/06/30 02:24:18;;;;;;;10.25;8.57;;;23.60;64.70;;;;;;5105597;28;20655;-69
2023/06/30 02:26:47;;;;;;;9.40;7.85;;;23.60;64.70;;;;;;5094448;28;20189;-69
2023/06/30 02:29:13;;;;;;;9.25;8.25;;;23.60;65.50;;;;;;5093290;28;20188;-69
2023/06/30 02:31:39;;;;;;;9.18;8.27;;;23.60;64.70;;;;;;5093716;28;20189;-69
2023/06/30 02:34:05;;;;;;;9.52;8.60;;;23.60;64.70;;;;;;5076090;28;20217;-69
2023/06/30 02:36:31;;;;;;;10.40;8.93;;;23.60;64.80;;;;;;5075312;28;20186;-69
2023/06/30 02:38:57;;;;;;;10.43;9.38;;;23.60;64.70;;;;;;5089982;28;20185;-69
2023/06/30 02:41:23;;;;;;;10.13;9.05;;;23.60;64.70;;;;;;5076940;28;20181;-69
2023/06/30 02:43:49;;;;;;;11.13;9.63;;;23.60;64.70;;;;;;5076354;28;20227;-69
2023/06/30 02:46:15;;;;;;;9.85;8.85;;;23.60;64.70;;;;;;5076504;28;20185;-69
2023/06/30 02:48:41;;;;;;;10.93;9.27;;;23.60;64.70;;;;;;5076812;28;20238;-69
2023/06/30 02:51:07;;;;;;;9.23;8.25;;;23.60;64.70;;;;;;5093637;28;20192;-69
2023/06/30 02:53:33;;;;;;;10.23;9.20;;;23.60;64.70;;;;;;5092377;28;20213;-69
2023/06/30 02:56:00;;;;;;;10.57;9.32;;;23.60;64.80;;;;;;5093509;28;20181;-69
2023/06/30 02:58:26;;;;;;;10.45;8.77;;;23.60;64.70;;;;;;5076287;28;20212;-69
2023/06/30 03:00:53;;;;;;;9.95;8.95;;;23.60;64.70;;;;;;5093672;28;20177;-69
2023/06/30 03:03:19;;;;;;;10.35;9.15;;;23.60;64.80;;;;;;5092847;28;20201;-69
2023/06/30 03:05:46;;;;;;;10.40;8.27;;;23.60;64.90;;;;;;5090381;28;20267;-69
2023/06/30 03:08:12;;;;;;;10.32;9.18;;;23.60;64.80;;;;;;5092777;28;20615;-69
2023/06/30 03:10:39;;;;;;;10.48;9.38;;;23.60;64.90;;;;;;5073062;28;20216;-69
2023/06/30 03:13:05;;;;;;;9.93;8.93;;;23.60;64.90;;;;;;5073015;28;20205;-69
2023/06/30 03:15:31;;;;;;;10.30;9.25;;;23.60;65.00;;;;;;5093067;28;20231;-69
2023/06/30 03:17:56;;;;;;;10.93;9.82;;;23.60;64.80;;;;;;5072640;28;20234;-69
2023/06/30 03:20:23;;;;;;;10.20;9.10;;;23.60;64.90;;;;;;5076261;28;20181;-69
2023/06/30 03:22:51;;;;;;;11.07;9.27;;;23.60;64.90;;;;;;5092036;28;20250;-69
2023/06/30 03:25:17;;;;;;;9.93;8.82;;;23.60;64.90;;;;;;5075323;28;20184;-69
2023/06/30 03:27:43;;;;;;;10.40;9.25;;;23.60;64.90;;;;;;5075555;28;20693;-69
2023/06/30 03:30:09;;;;;;;11.32;9.98;;;23.60;64.90;;;;;;5092168;28;20658;-69
2023/06/30 03:32:40;;;;;;;10.20;9.20;;;23.60;65.00;;;;;;5091616;28;20224;-69
2023/06/30 03:35:06;;;;;;;11.32;9.82;;;23.60;65.10;;;;;;5092039;28;20239;-70
2023/06/30 03:37:33;;;;;;;11.13;10.00;;;23.60;65.10;;;;;;5075010;28;20228;-69
2023/06/30 03:40:00;;;;;;;10.70;9.38;;;23.60;65.10;;;;;;5074084;28;20574;-70
2023/06/30 03:42:27;;;;;;;10.93;9.38;;;23.60;64.90;;;;;;5091591;28;20201;-70
2023/06/30 03:44:52;;;;;;;10.55;9.43;;;23.60;64.90;;;;;;5072202;28;20196;-70
2023/06/30 03:47:18;;;;;;;10.45;9.35;;;23.60;64.90;;;;;;5108248;28;20674;-70
2023/06/30 03:49:44;;;;;;;10.60;9.50;;;23.60;64.90;;;;;;5091912;28;20189;-70
2023/06/30 03:52:10;;;;;;;11.23;9.35;;;23.60;65.00;;;;;;5074665;28;20211;-70
2023/06/30 03:54:36;;;;;;;11.52;10.13;;;23.60;65.10;;;;;;5108264;28;20216;-71
2023/06/30 03:57:02;;;;;;;10.95;9.77;;;23.60;65.10;;;;;;5091955;28;20176;-70
2023/06/30 03:59:27;;;;;;;9.32;8.38;;;23.60;65.10;;;;;;5091406;28;20187;-70
2023/06/30 04:01:53;;;;;;;10.18;9.10;;;23.60;65.10;;;;;;5082492;28;20261;-69
2023/06/30 04:04:19;;;;;;;10.85;9.40;;;23.60;65.20;;;;;;5100060;28;20197;-70
2023/06/30 04:06:46;;;;;;;11.07;9.43;;;23.60;65.10;;;;;;5075102;28;20203;-70
2023/06/30 04:09:11;;;;;;;11.07;9.60;;;23.60;65.00;;;;;;5092968;28;20224;-70
2023/06/30 04:11:37;;;;;;;10.18;9.10;;;23.60;65.10;;;;;;5081191;28;20228;-70
2023/06/30 04:14:03;;;;;;;10.65;9.32;;;23.60;65.10;;;;;;5091983;28;20234;-70
2023/06/30 04:16:29;;;;;;;10.43;9.00;;;23.60;65.30;;;;;;5074012;28;20184;-70
2023/06/30 04:18:55;;;;;;;9.63;8.27;;;23.60;65.10;;;;;;5091587;28;20252;-70
2023/06/30 04:21:21;;;;;;;11.40;9.75;;;23.60;65.20;;;;;;5090577;28;20196;-70
2023/06/30 04:23:47;;;;;;;11.50;10.13;;;23.60;65.20;;;;;;5072451;28;20281;-71
2023/06/30 04:26:17;;;;;;;10.43;9.13;;;23.60;65.30;;;;;;5073587;28;20189;-70
2023/06/30 04:28:45;;;;;;;11.48;9.75;;;23.60;65.30;;;;;;5065438;28;20199;-71
2023/06/30 04:31:10;;;;;;;10.88;9.77;;;23.60;65.40;;;;;;5070101;28;20213;-70
2023/06/30 04:33:36;;;;;;;10.57;9.02;;;23.60;65.40;;;;;;5105376;28;20243;-70
2023/06/30 04:36:03;;;;;;;10.05;9.05;;;23.60;65.50;;;;;;5090958;28;20189;-70
2023/06/30 04:38:30;;;;;;;11.10;9.55;;;23.60;65.50;;;;;;5113736;27;20197;-70
2023/06/30 04:40:56;;;;;;;10.73;8.75;;;23.60;65.60;;;;;;5082389;28;20185;-70
2023/06/30 04:43:22;;;;;;;11.77;9.32;;;23.60;65.60;;;;;;5090070;28;20216;-70
2023/06/30 04:45:48;;;;;;;10.00;9.00;;;23.60;65.60;;;;;;5073424;28;20184;-70
2023/06/30 04:48:13;;;;;;;10.85;9.68;;;23.60;65.70;;;;;;5090301;28;20184;-70
2023/06/30 04:50:39;;;;;;;11.15;9.45;;;23.60;65.70;;;;;;5083856;28;20192;-70
2023/06/30 04:53:05;;;;;;;10.75;9.65;;;23.50;65.60;;;;;;5114017;27;20198;-70
2023/06/30 04:55:31;;;;;;;11.02;9.60;;;23.60;65.70;;;;;;5096391;28;20232;-70
2023/06/30 04:57:56;;;;;;;11.73;9.98;;;23.60;65.70;;;;;;5068376;28;20182;-70
2023/06/30 05:00:23;;;;;;;11.25;10.00;;;23.60;65.80;;;;;;5116771;27;20196;-70
2023/06/30 05:02:49;;;;;;;11.45;9.52;;;23.60;65.70;;;;;;5093864;28;20209;-70
2023/06/30 05:05:16;;;;;;;12.25;10.60;;;23.50;65.70;;;;;;5089004;28;20197;-70
2023/06/30 05:07:42;;;;;;;12.13;10.32;;;23.50;65.60;;;;;;5090935;28;20189;-70
2023/06/30 05:10:09;;;;;;;11.68;10.15;;;23.60;65.70;;;;;;5073535;28;20725;-70
2023/06/30 05:12:35;;;;;;;11.48;10.27;;;23.50;65.60;;;;;;5092361;28;20247;-70
2023/06/30 05:15:02;;;;;;;11.82;10.55;;;23.50;65.70;;;;;;5092524;28;20209;-70
2023/06/30 05:17:28;;;;;;;12.50;10.32;;;23.50;65.70;;;;;;5092163;28;20195;-70
2023/06/30 05:19:54;;;;;;;12.48;11.05;;;23.60;65.80;;;;;;5103076;28;20192;-70
2023/06/30 05:22:20;;;;;;;12.07;10.43;;;23.60;65.80;;;;;;5084193;28;20208;-70
2023/06/30 05:24:45;;;;;;;12.35;11.05;;;23.60;65.80;;;;;;5093226;28;20188;-70
2023/06/30 05:27:11;;;;;;;10.88;9.77;;;23.60;65.70;;;;;;5083165;28;20233;-70
2023/06/30 05:29:37;;;;;;;11.20;10.10;;;23.60;65.80;;;;;;5091026;28;20184;-69
2023/06/30 05:32:03;;;;;;;9.98;8.98;;;23.60;65.70;;;;;;5090626;28;20232;-70
2023/06/30 05:34:29;;;;;;;12.25;10.45;;;23.60;65.70;;;;;;5088802;28;20213;-70
2023/06/30 05:36:55;;;;;;;11.57;10.38;;;23.60;65.80;;;;;;5091211;28;20674;-70
2023/06/30 05:39:22;;;;;;;13.23;10.93;;;23.60;66.60;;;;;;5088158;28;20197;-70
2023/06/30 05:41:48;;;;;;;10.70;9.60;;;23.60;65.80;;;;;;5058445;28;20231;-70
2023/06/30 05:44:14;;;;;;;12.07;10.57;;;23.60;65.80;;;;;;5085086;28;20276;-69
2023/06/30 05:46:40;;;;;;;11.88;10.13;;;23.50;65.70;;;;;;5072922;28;20185;-70
2023/06/30 05:49:06;;;;;;;11.38;10.23;;;23.50;65.70;;;;;;5089534;28;20612;-70
2023/06/30 05:51:33;;;;;;;12.07;10.77;;;23.50;65.70;;;;;;5072792;28;20184;-70
2023/06/30 05:54:01;;;;;;;12.65;10.57;;;23.50;65.70;;;;;;5085835;28;20225;-70
2023/06/30 05:56:28;;;;;;;11.93;10.38;;;23.50;65.70;;;;;;5089093;28;20191;-70
2023/06/30 05:58:54;;;;;;;12.48;10.32;;;23.60;65.80;;;;;;5084164;28;20231;-70
2023/06/30 06:01:20;;;;;;;11.73;10.48;;;23.60;65.80;;;;;;5080903;28;20180;-69
2023/06/30 06:03:47;;;;;;;12.48;10.32;;;23.50;65.70;;;;;;5088327;28;20296;-70
2023/06/30 06:06:12;;;;;;;11.35;10.07;;;23.50;65.70;;;;;;5090279;28;20197;-70
2023/06/30 06:08:42;;;;;;;11.80;9.95;;;23.50;65.80;;;;;;5076845;28;20197;-69
2023/06/30 06:11:08;;;;;;;13.02;10.52;;;23.50;65.80;;;;;;5075508;28;20230;-70
2023/06/30 06:13:38;;;;;;;11.32;10.07;;;23.50;65.80;;;;;;5088483;28;20208;-70
2023/06/30 06:16:06;;;;;;;12.70;11.00;;;23.50;65.90;;;;;;5072749;28;20275;-70
2023/06/30 06:18:33;;;;;;;11.43;10.13;;;23.50;65.80;;;;;;5084457;28;20172;-70
2023/06/30 06:21:02;;;;;;;12.23;10.65;;;23.50;65.90;;;;;;5092488;28;20237;-70
2023/06/30 06:23:27;;;;;;;12.25;10.48;;;23.50;65.90;;;;;;5093168;28;20210;-70
2023/06/30 06:25:53;;;;;;;12.32;10.27;;;23.60;66.00;;;;;;5085934;28;20189;-70
2023/06/30 06:28:19;;;;;;;11.15;10.05;;;23.50;65.90;;;;;;5078488;28;20193;-70
2023/06/30 06:30:45;;;;;;;12.38;10.05;;;23.60;66.00;;;;;;5038860;22;20293;-69
2023/06/30 06:33:11;;;;;;;11.07;9.63;;;23.60;66.00;;;;;;5025741;28;20195;-69
2023/06/30 06:35:36;;;;;;;11.45;10.15;;;23.50;65.90;;;;;;4998793;28;20216;-69
2023/06/30 06:38:02;;;;;;;10.65;9.55;;;23.50;65.90;;;;;;5006439;28;20239;-69
2023/06/30 06:40:29;;;;;;;10.38;9.32;;;23.50;66.00;;;;;;5003365;28;20213;-69
2023/06/30 06:42:56;;;;;;;10.80;9.27;;;23.50;66.10;;;;;;4977027;28;20192;-69
2023/06/30 06:45:26;;;;;;;11.45;9.70;;;23.50;66.10;;;;;;4988925;28;20185;-69
2023/06/30 06:48:25;;;;;;;11.07;9.45;;;23.50;66.10;;;;;;4966494;28;20251;-69
2023/06/30 06:50:57;;;;;;;11.15;9.82;;;23.50;66.10;;;;;;4976675;28;20215;-69
2023/06/30 06:53:26;;;;;;;10.63;9.43;;;23.50;66.20;;;;;;4998356;28;20197;-69
2023/06/30 06:55:53;;;;;;;10.98;9.80;;;23.50;66.10;;;;;;4990780;28;20186;-69
2023/06/30 06:58:20;;;;;;;10.68;8.90;;;23.50;66.10;;;;;;4982276;28;20284;-69
2023/06/30 07:00:48;;;;;;;10.88;9.10;;;23.60;66.20;;;;;;4992317;28;20201;-69
2023/06/30 07:03:15;;;;;;;10.05;9.05;;;23.50;66.10;;;;;;4998132;28;20571;-69
2023/06/30 07:05:43;;;;;;;9.88;8.70;;;23.50;66.10;;;;;;4975634;28;20198;-69
2023/06/30 07:08:11;;;;;;;10.60;9.40;;;23.60;66.20;;;;;;4982197;28;20196;-69
2023/06/30 07:10:37;;;;;;;11.05;9.52;;;23.50;66.20;;;;;;4981817;28;20228;-69
2023/06/30 07:13:04;;;;;;;10.88;9.30;;;23.60;66.30;;;;;;4982910;28;20193;-69
2023/06/30 07:15:30;;;;;;;10.32;9.23;;;23.50;66.20;;;;;;4990635;28;20308;-69
2023/06/30 07:17:57;;;;;;;10.35;9.25;;;23.50;66.20;;;;;;5004566;28;20195;-69
2023/06/30 07:20:24;;;;;;;11.32;9.93;;;23.50;66.20;;;;;;5002618;28;20206;-69
2023/06/30 07:22:52;;;;;;;10.50;9.40;;;23.50;66.40;;;;;;4980320;28;20586;-69
2023/06/30 07:25:17;;;;;;;10.63;9.52;;;23.50;66.40;;;;;;4984198;28;20664;-70
2023/06/30 07:27:52;;;;;;;10.52;9.43;;;23.50;66.30;;;;;;4981865;28;20194;-70
2023/06/30 07:30:21;;;;;;;10.52;9.43;;;23.50;66.20;;;;;;4975708;28;20220;-69
2023/06/30 07:32:47;;;;;;;10.60;9.38;;;23.50;66.30;;;;;;4993049;28;20672;-69
2023/06/30 07:35:14;;;;;;;9.88;8.88;;;23.50;66.20;;;;;;5005889;28;20217;-69
2023/06/30 07:37:39;;;;;;;11.32;9.48;;;23.50;66.30;;;;;;4973685;28;20189;-69
2023/06/30 07:40:06;;;;;;;10.75;9.50;;;23.50;66.40;;;;;;4989557;28;20211;-69
2023/06/30 07:42:33;;;;;;;9.90;8.90;;;23.50;66.30;;;;;;4993864;28;20199;-69
2023/06/30 07:44:58;;;;;;;10.00;8.82;;;23.50;66.30;;;;;;4992970;28;20197;-69
2023/06/30 07:47:25;;;;;;;11.63;10.13;;;23.50;66.40;;;;;;5006096;28;20202;-69
2023/06/30 07:49:51;;;;;;;11.57;9.85;;;23.50;66.30;;;;;;4970366;28;20208;-69
2023/06/30 07:52:16;;;;;;;10.93;9.52;;;23.50;66.40;;;;;;5005591;28;20212;-69
2023/06/30 07:54:44;;;;;;;10.57;9.48;;;23.50;66.30;;;;;;4984478;28;20208;-70
2023/06/30 07:57:10;;;;;;;11.30;9.60;;;23.50;66.20;;;;;;5006513;28;20190;-70
2023/06/30 07:59:36;;;;;;;11.13;10.00;;;23.50;66.30;;;;;;4991982;28;20203;-69
2023/06/30 08:02:03;;;;;;;11.10;9.77;;;23.50;66.30;;;;;;4993995;28;20192;-71
2023/06/30 08:04:29;;;;;;;11.02;9.77;;;23.50;66.30;;;;;;4990703;28;20562;-69
2023/06/30 08:06:55;;;;;;;11.07;9.80;;;23.50;66.30;;;;;;4988153;28;20665;-69
2023/06/30 08:09:21;;;;;;;10.32;9.15;;;23.50;66.20;;;;;;4975125;28;20224;-69
2023/06/30 08:11:46;;;;;;;9.75;8.68;;;23.50;66.20;;;;;;4998889;28;20287;-69
2023/06/30 08:14:12;;;;;;;11.32;9.30;;;23.50;66.20;;;;;;4979669;28;20216;-69
2023/06/30 08:16:38;;;;;;;11.70;9.55;;;23.50;66.20;;;;;;4988415;28;20193;-69
2023/06/30 08:19:03;;;;;;;11.20;9.50;;;23.50;66.30;;;;;;4982559;28;20192;-69
2023/06/30 08:21:29;;;;;;;12.07;10.15;;;23.50;66.30;;;;;;4974211;28;20193;-70
2023/06/30 08:23:55;;;;;;;11.18;9.52;;;23.50;66.20;;;;;;5004061;28;20272;-69
2023/06/30 08:26:20;;;;;;;10.38;9.27;;;23.60;66.30;;;;;;5023045;28;20189;-69
2023/06/30 08:28:46;;;;;;;10.50;8.82;;;23.60;66.30;;;;;;4961905;28;20247;-69
2023/06/30 08:31:12;;;;;;;11.52;9.75;;;23.50;66.20;;;;;;4985124;28;20696;-69
2023/06/30 08:33:38;;;;;;;11.02;9.93;;;23.60;66.40;;;;;;5004914;28;20193;-69
2023/06/30 08:36:05;;;;;;;10.35;9.15;;;23.60;66.30;;;;;;4980836;28;20177;-70
2023/06/30 08:38:30;;;;;;;10.80;9.70;;;23.60;66.50;;;;;;4996920;28;20192;-69
2023/06/30 08:40:57;;;;;;;11.07;9.90;;;23.60;66.50;;;;;;4966649;28;20229;-70
2023/06/30 08:43:27;;;;;;;10.85;9.75;;;23.60;66.40;;;;;;4997591;28;20619;-69
2023/06/30 08:45:54;;;;;;;11.38;9.48;;;23.60;66.40;;;;;;4988642;28;20199;-70
2023/06/30 08:48:20;;;;;;;11.38;9.98;;;23.60;66.40;;;;;;4990284;28;20244;-69
2023/06/30 08:50:47;;;;;;;10.75;9.43;;;23.60;66.50;;;;;;4984932;28;20266;-69
2023/06/30 08:53:13;;;;;;;9.65;8.57;;;23.60;66.50;;;;;;4979848;28;20272;-69
2023/06/30 08:55:40;;;;;;;10.70;9.23;;;23.60;66.50;;;;;;4988085;28;20328;-69
2023/06/30 08:58:05;;;;;;;11.13;9.95;;;23.60;66.40;;;;;;4961908;28;20184;-69
2023/06/30 09:00:31;;;;;;;9.95;8.93;;;23.60;66.50;;;;;;5001634;28;20208;-68
2023/06/30 09:03:04;;;;;;;10.23;8.98;;;23.60;66.50;;;;;;4970775;28;20185;-68
2023/06/30 09:05:36;;;;;;;11.25;9.68;;;23.60;66.30;;;;;;4973844;28;20192;-68
2023/06/30 09:08:10;;;;;;;9.60;8.60;;;23.60;66.60;;;;;;5005547;28;20212;-68
2023/06/30 09:10:37;;;;;;;10.02;9.00;;;23.60;66.50;;;;;;4984490;28;20213;-69
2023/06/30 09:13:06;;;;;;;11.07;9.02;;;23.60;66.60;;;;;;4992900;28;20181;-68
2023/06/30 09:15:33;;;;;;;11.05;9.13;;;23.60;66.50;;;;;;5008948;28;20200;-69
2023/06/30 09:17:59;;;;;;;10.73;9.10;;;23.60;66.70;;;;;;4982874;28;20181;-69
2023/06/30 09:20:24;;;;;;;10.48;9.18;;;23.60;66.70;;;;;;4989316;28;20209;-69
2023/06/30 09:22:50;;;;;;;10.23;8.60;;;23.60;66.80;;;;;;4988293;28;20200;-68
2023/06/30 09:25:25;;;;;;;10.43;8.95;;;23.60;66.60;;;;;;4971634;28;20189;-68
2023/06/30 09:27:52;;;;;;;10.70;9.35;;;23.60;66.60;;;;;;4983788;28;20198;-68
2023/06/30 09:30:18;;;;;;;9.70;8.70;;;23.60;66.60;;;;;;4976660;28;20223;-68
2023/06/30 09:32:44;;;;;;;10.70;9.57;;;23.70;66.90;;;;;;4983567;28;20711;-68
2023/06/30 09:35:19;;;;;;;9.57;8.57;;;23.70;67.00;;;;;;4991355;28;20212;-68
2023/06/30 09:37:44;;;;;;;10.20;9.02;;;23.70;67.00;;;;;;5004431;28;20653;-69
2023/06/30 09:40:15;;;;;;;9.95;8.90;;;23.70;66.90;;;;;;4980758;28;20260;-68
2023/06/30 09:42:44;;;;;;;10.35;9.27;;;23.70;67.00;;;;;;5007015;28;20284;-68
2023/06/30 09:45:13;;;;;;;11.07;9.23;;;23.60;67.10;;;;;;4975232;28;20188;-68
2023/06/30 09:47:41;;;;;;;9.80;8.80;;;23.60;67.00;;;;;;5004875;28;20739;-68
2023/06/30 09:50:08;;;;;;;10.43;9.07;;;23.60;67.10;;;;;;5010902;28;20200;-68
2023/06/30 09:52:34;;;;;;;10.05;8.52;;;23.60;67.00;;;;;;4989482;28;20198;-68
2023/06/30 09:55:09;;;;;;;9.82;8.82;;;23.60;67.10;;;;;;4979103;28;20206;-68
2023/06/30 09:57:39;;;;;;;10.60;9.43;;;23.60;67.20;;;;;;4987878;28;20184;-68
2023/06/30 10:00:07;;;;;;;10.07;9.07;;;23.60;67.10;;;;;;5002350;28;20212;-68
2023/06/30 10:02:33;;;;;;;10.50;9.32;;;23.60;67.10;;;;;;5003882;28;20177;-68
2023/06/30 10:04:58;;;;;;;9.88;8.70;;;23.60;67.10;;;;;;5001705;28;20193;-68
2023/06/30 10:07:24;;;;;;;10.25;8.77;;;23.60;67.30;;;;;;4996009;28;20181;-67
2023/06/30 10:09:54;;;;;;;10.50;9.13;;;23.60;67.20;;;;;;4975864;28;20248;-68
2023/06/30 10:12:21;;;;;;;11.98;8.80;;;23.60;67.30;;;;;;4987779;28;20198;-68
2023/06/30 10:14:49;;;;;;;10.05;8.98;;;23.60;67.30;;;;;;4984160;28;20232;-68
2023/06/30 10:17:15;;;;;;;10.48;9.38;;;23.60;68.10;;;;;;5000546;28;20170;-68
2023/06/30 10:19:42;;;;;;;10.85;9.55;;;23.60;67.30;;;;;;4987975;28;20220;-68
2023/06/30 10:22:08;;;;;;;11.75;10.32;;;23.60;67.40;;;;;;4974596;28;20189;-68
2023/06/30 10:24:37;;;;;;;12.93;10.98;;;23.60;67.40;;;;;;5009157;28;20224;-68
2023/06/30 10:27:09;;;;;;;11.52;10.15;;;23.60;67.50;;;;;;4995043;28;20193;-68
2023/06/30 10:29:35;;;;;;;11.40;10.20;;;23.60;67.50;;;;;;5011082;28;20229;-68
2023/06/30 10:32:03;;;;;;;11.50;10.30;;;23.60;67.40;;;;;;4981903;28;20264;-68
2023/06/30 10:34:30;;;;;;;12.20;10.18;;;23.60;67.50;;;;;;4984179;28;20255;-68
2023/06/30 10:36:58;;;;;;;10.48;9.35;;;23.60;67.30;;;;;;4984712;28;20182;-68
2023/06/30 10:39:26;;;;;;;12.45;10.50;;;23.60;67.30;;;;;;4991196;28;20209;-68
2023/06/30 10:41:51;;;;;;;12.20;10.43;;;23.60;67.30;;;;;;4987282;28;20640;-68
2023/06/30 10:44:19;;;;;;;12.35;10.73;;;23.60;67.30;;;;;;5001241;28;20184;-68
2023/06/30 10:46:49;;;;;;;12.35;10.30;;;23.60;67.40;;;;;;5007493;28;20350;-68
2023/06/30 10:49:41;;;;;;;13.40;11.15;;;23.60;67.60;;;;;;4993858;28;20247;-68
2023/06/30 10:52:28;;;;;;;11.68;10.40;;;23.60;67.50;;;;;;5007476;28;20220;-68
2023/06/30 10:55:03;;;;;;;12.48;10.50;;;23.70;67.70;;;;;;5007393;28;20218;-68
2023/06/30 10:57:36;;;;;;;11.07;9.88;;;23.60;67.80;;;;;;5007844;28;20177;-67
2023/06/30 11:00:11;;;;;;;11.75;10.30;;;23.60;67.60;;;;;;5003501;28;20225;-68
2023/06/30 11:02:49;;;;;;;12.35;10.52;;;23.60;67.40;;;;;;4976017;28;20711;-68
2023/06/30 11:05:25;;;;;;;12.68;10.43;;;23.70;67.70;;;;;;4992462;28;20187;-68
2023/06/30 11:07:53;;;;;;;11.88;10.23;;;23.70;67.60;;;;;;5006421;28;20242;-68
2023/06/30 11:10:31;;;;;;;10.90;9.68;;;23.70;67.70;;;;;;5002798;28;20225;-68
2023/06/30 11:13:00;;;;;;;10.52;9.40;;;23.70;67.70;;;;;;4975947;28;20177;-68
2023/06/30 11:15:33;;;;;;;10.82;9.30;;;23.70;67.70;;;;;;4984051;28;20234;-68
2023/06/30 11:18:00;;;;;;;11.10;9.85;;;23.70;67.60;;;;;;4974805;28;20186;-68
2023/06/30 11:20:26;;;;;;;11.10;9.65;;;23.70;67.70;;;;;;5001359;28;20210;-68
2023/06/30 11:23:15;;;;;;;11.90;9.85;;;23.70;67.70;;;;;;4998438;28;20218;-68
2023/06/30 11:25:40;;;;;;;11.43;10.00;;;23.70;67.80;;;;;;4984414;28;20227;-68
2023/06/30 11:28:08;;;;;;;11.73;10.00;;;23.70;67.80;;;;;;4996507;28;20263;-68
2023/06/30 11:30:38;;;;;;;11.05;9.85;;;23.70;68.00;;;;;;4983332;28;20239;-68
2023/06/30 11:33:06;;;;;;;11.38;10.05;;;23.70;67.80;;;;;;4995165;28;20200;-68
2023/06/30 11:35:35;;;;;;;10.43;9.30;;;23.70;67.80;;;;;;4965686;28;20224;-68
2023/06/30 11:38:01;;;;;;;11.30;9.60;;;23.70;67.80;;;;;;4970374;28;20191;-70
2023/06/30 11:40:27;;;;;;;11.07;9.85;;;23.70;67.80;;;;;;4994455;28;20209;-68
2023/06/30 11:42:53;;;;;;;10.90;9.43;;;23.80;68.00;;;;;;5001583;28;20562;-68
2023/06/30 11:45:20;;;;;;;10.25;9.18;;;23.70;67.80;;;;;;5009938;28;20181;-68
2023/06/30 11:47:49;;;;;;;9.88;8.88;;;23.70;67.80;;;;;;4985249;28;20264;-68
2023/06/30 11:50:15;;;;;;;11.05;9.88;;;23.70;68.00;;;;;;4993322;28;20208;-68
2023/06/30 11:52:41;;;;;;;11.75;9.23;;;23.70;67.90;;;;;;4991771;28;20189;-68
2023/06/30 11:55:10;;;;;;;10.52;9.43;;;23.70;67.90;;;;;;4988062;28;20214;-68
2023/06/30 11:57:37;;;;;;;11.98;9.57;;;23.70;67.80;;;;;;4999184;28;20638;-68
2023/06/30 12:00:12;;;;;;;11.40;9.20;;;23.70;67.90;;;;;;5004785;28;20214;-68
2023/06/30 12:02:58;;;;;;;9.50;8.18;;;23.70;67.90;;;;;;4982308;28;20219;-68
2023/06/30 12:05:25;;;;;;;10.50;9.40;;;23.70;68.00;;;;;;4973839;28;20189;-68
2023/06/30 12:07:55;;;;;;;10.98;9.23;;;23.80;68.40;;;;;;4992860;28;20216;-68
2023/06/30 12:10:22;;;;;;;10.38;8.63;;;23.70;68.00;;;;;;5001114;28;20251;-68
2023/06/30 12:12:58;;;;;;;10.43;8.82;;;23.70;68.00;;;;;;5008666;28;20188;-68
2023/06/30 12:15:24;;;;;;;9.60;8.63;;;23.70;68.20;;;;;;4992925;28;20715;-68
2023/06/30 12:17:54;;;;;;;10.27;9.18;;;23.80;68.40;;;;;;4997612;28;20661;-68
2023/06/30 12:20:38;;;;;;;10.88;9.75;;;23.70;68.30;;;;;;4996711;28;20749;-68
2023/06/30 12:23:06;;;;;;;9.90;8.90;;;23.80;68.50;;;;;;4989336;28;20178;-68
2023/06/30 12:25:36;;;;;;;11.27;9.43;;;23.80;68.40;;;;;;4986890;28;20183;-68
2023/06/30 12:28:06;;;;;;;10.02;8.90;;;23.80;68.50;;;;;;5008855;28;20185;-68
2023/06/30 12:30:32;;;;;;;9.68;8.65;;;23.70;68.50;;;;;;5048850;22;20218;-70
2023/06/30 12:33:00;;;;;;;10.77;9.30;;;23.70;68.50;;;;;;5042037;28;20190;-70
2023/06/30 12:35:32;;;;;;;10.45;9.18;;;23.80;68.60;;;;;;5030376;28;20211;-70
2023/06/30 12:37:59;;;;;;;10.32;8.55;;;23.80;68.70;;;;;;5017973;28;20232;-70
2023/06/30 12:40:30;;;;;;;9.35;8.27;;;23.80;68.70;;;;;;5034530;28;20220;-70